sensor_id;sensor_type;location;lat;lon;timestamp;temperature;humidity
77613;DHT22;66777;52.282;5.960;2023-03-02T00:02:05;2.40;79.40
77613;DHT22;66777;52.282;5.960;2023-03-02T00:04:36;2.40;79.50
77613;DHT22;66777;52.282;5.960;2023-03-02T00:07:09;2.40;79.70
77613;DHT22;66777;52.282;5.960;2023-03-02T00:09:37;2.50;79.30
77613;DHT22;66777;52.282;5.960;2023-03-02T00:12:04;2.50;79.60
77613;DHT22;66777;52.282;5.960;2023-03-02T00:14:30;2.50;79.70
77613;DHT22;66777;52.282;5.960;2023-03-02T00:16:58;2.50;79.30
77613;DHT22;66777;52.282;5.960;2023-03-02T00:19:23;2.50;79.60
77613;DHT22;66777;52.282;5.960;2023-03-02T00:21:49;2.50;79.80
77613;DHT22;66777;52.282;5.960;2023-03-02T00:24:16;2.50;79.80
77613;DHT22;66777;52.282;5.960;2023-03-02T00:26:42;2.50;79.40
77613;DHT22;66777;52.282;5.960;2023-03-02T00:29:08;2.40;79.70
77613;DHT22;66777;52.282;5.960;2023-03-02T00:31:34;2.40;80.00
77613;DHT22;66777;52.282;5.960;2023-03-02T00:34:00;2.40;79.60
77613;DHT22;66777;52.282;5.960;2023-03-02T00:36:26;2.30;80.00
77613;DHT22;66777;52.282;5.960;2023-03-02T00:38:52;2.30;80.50
77613;DHT22;66777;52.282;5.960;2023-03-02T00:41:21;2.10;80.50
77613;DHT22;66777;52.282;5.960;2023-03-02T00:43:48;2.00;80.50
77613;DHT22;66777;52.282;5.960;2023-03-02T00:46:19;1.90;80.90
77613;DHT22;66777;52.282;5.960;2023-03-02T00:48:45;1.80;81.20
77613;DHT22;66777;52.282;5.960;2023-03-02T00:51:11;1.70;81.50
77613;DHT22;66777;52.282;5.960;2023-03-02T00:53:39;1.60;81.40
77613;DHT22;66777;52.282;5.960;2023-03-02T00:56:06;1.50;81.70
77613;DHT22;66777;52.282;5.960;2023-03-02T00:58:32;1.40;82.30
77613;DHT22;66777;52.282;5.960;2023-03-02T01:01:07;1.40;82.50
77613;DHT22;66777;52.282;5.960;2023-03-02T01:03:35;1.40;82.60
77613;DHT22;66777;52.282;5.960;2023-03-02T01:06:01;1.40;82.80
77613;DHT22;66777;52.282;5.960;2023-03-02T01:08:27;1.40;82.40
77613;DHT22;66777;52.282;5.960;2023-03-02T01:10:52;1.40;82.90
77613;DHT22;66777;52.282;5.960;2023-03-02T01:13:19;1.40;83.00
77613;DHT22;66777;52.282;5.960;2023-03-02T01:15:45;1.50;82.90
77613;DHT22;66777;52.282;5.960;2023-03-02T01:18:10;1.60;82.90
77613;DHT22;66777;52.282;5.960;2023-03-02T01:20:36;1.60;82.70
77613;DHT22;66777;52.282;5.960;2023-03-02T01:23:03;1.70;81.70
77613;DHT22;66777;52.282;5.960;2023-03-02T01:25:28;1.60;82.10
77613;DHT22;66777;52.282;5.960;2023-03-02T01:27:54;1.50;82.00
77613;DHT22;66777;52.282;5.960;2023-03-02T01:30:20;1.50;82.00
77613;DHT22;66777;52.282;5.960;2023-03-02T01:32:46;1.50;81.80
77613;DHT22;66777;52.282;5.960;2023-03-02T01:35:13;1.40;82.20
77613;DHT22;66777;52.282;5.960;2023-03-02T01:37:39;1.40;82.20
77613;DHT22;66777;52.282;5.960;2023-03-02T01:40:06;1.50;82.20
77613;DHT22;66777;52.282;5.960;2023-03-02T01:42:45;1.40;82.20
77613;DHT22;66777;52.282;5.960;2023-03-02T01:45:54;1.40;82.20
77613;DHT22;66777;52.282;5.960;2023-03-02T01:51:13;1.40;82.00
77613;DHT22;66777;52.282;5.960;2023-03-02T01:53:43;1.40;82.10
77613;DHT22;66777;52.282;5.960;2023-03-02T01:56:24;1.40;82.00
77613;DHT22;66777;52.282;5.960;2023-03-02T01:58:55;1.20;82.30
77613;DHT22;66777;52.282;5.960;2023-03-02T02:01:28;1.10;82.40
77613;DHT22;66777;52.282;5.960;2023-03-02T02:03:54;1.00;82.80
77613;DHT22;66777;52.282;5.960;2023-03-02T02:06:24;0.80;82.90
77613;DHT22;66777;52.282;5.960;2023-03-02T02:08:53;0.80;83.30
77613;DHT22;66777;52.282;5.960;2023-03-02T02:11:20;0.80;83.60
77613;DHT22;66777;52.282;5.960;2023-03-02T02:13:46;0.80;83.80
77613;DHT22;66777;52.282;5.960;2023-03-02T02:16:13;1.00;83.80
77613;DHT22;66777;52.282;5.960;2023-03-02T02:18:40;1.00;83.60
77613;DHT22;66777;52.282;5.960;2023-03-02T02:21:07;1.00;83.40
77613;DHT22;66777;52.282;5.960;2023-03-02T02:24:03;1.00;83.40
77613;DHT22;66777;52.282;5.960;2023-03-02T02:26:33;0.90;83.30
77613;DHT22;66777;52.282;5.960;2023-03-02T02:29:25;0.80;83.60
77613;DHT22;66777;52.282;5.960;2023-03-02T02:36:49;0.80;83.30
77613;DHT22;66777;52.282;5.960;2023-03-02T02:39:35;0.80;83.50
77613;DHT22;66777;52.282;5.960;2023-03-02T02:42:09;0.80;83.60
77613;DHT22;66777;52.282;5.960;2023-03-02T02:44:36;0.70;83.60
77613;DHT22;66777;52.282;5.960;2023-03-02T02:47:02;0.60;83.50
77613;DHT22;66777;52.282;5.960;2023-03-02T02:49:38;0.60;83.60
77613;DHT22;66777;52.282;5.960;2023-03-02T02:52:05;0.60;83.80
77613;DHT22;66777;52.282;5.960;2023-03-02T02:54:32;0.60;83.80
77613;DHT22;66777;52.282;5.960;2023-03-02T02:57:01;0.60;83.90
77613;DHT22;66777;52.282;5.960;2023-03-02T02:59:41;0.50;83.70
77613;DHT22;66777;52.282;5.960;2023-03-02T03:02:21;0.50;83.70
77613;DHT22;66777;52.282;5.960;2023-03-02T03:04:48;0.50;83.60
77613;DHT22;66777;52.282;5.960;2023-03-02T03:07:23;0.50;83.90
77613;DHT22;66777;52.282;5.960;2023-03-02T03:10:34;0.40;83.90
77613;DHT22;66777;52.282;5.960;2023-03-02T03:13:00;0.30;83.80
77613;DHT22;66777;52.282;5.960;2023-03-02T03:15:26;0.30;83.70
77613;DHT22;66777;52.282;5.960;2023-03-02T03:17:56;0.30;84.20
77613;DHT22;66777;52.282;5.960;2023-03-02T03:20:23;0.40;84.20
77613;DHT22;66777;52.282;5.960;2023-03-02T03:22:49;0.30;84.00
77613;DHT22;66777;52.282;5.960;2023-03-02T03:25:24;0.30;83.90
77613;DHT22;66777;52.282;5.960;2023-03-02T03:27:50;0.30;84.10
77613;DHT22;66777;52.282;5.960;2023-03-02T03:30:16;0.30;84.10
77613;DHT22;66777;52.282;5.960;2023-03-02T03:32:42;0.30;84.10
77613;DHT22;66777;52.282;5.960;2023-03-02T03:35:08;0.30;84.00
77613;DHT22;66777;52.282;5.960;2023-03-02T03:37:38;0.30;83.90
77613;DHT22;66777;52.282;5.960;2023-03-02T03:40:06;0.20;83.80
77613;DHT22;66777;52.282;5.960;2023-03-02T03:42:35;0.10;83.90
77613;DHT22;66777;52.282;5.960;2023-03-02T03:45:02;0.10;84.30
77613;DHT22;66777;52.282;5.960;2023-03-02T03:47:28;0.20;84.40
77613;DHT22;66777;52.282;5.960;2023-03-02T03:49:54;0.30;84.20
77613;DHT22;66777;52.282;5.960;2023-03-02T03:52:20;0.30;83.90
77613;DHT22;66777;52.282;5.960;2023-03-02T03:54:59;0.20;83.80
77613;DHT22;66777;52.282;5.960;2023-03-02T03:57:28;0.20;84.10
77613;DHT22;66777;52.282;5.960;2023-03-02T03:59:54;0.20;84.10
77613;DHT22;66777;52.282;5.960;2023-03-02T04:02:20;0.10;84.10
77613;DHT22;66777;52.282;5.960;2023-03-02T04:04:46;0.20;84.20
77613;DHT22;66777;52.282;5.960;2023-03-02T04:07:13;0.20;84.40
77613;DHT22;66777;52.282;5.960;2023-03-02T04:09:39;0.30;84.40
77613;DHT22;66777;52.282;5.960;2023-03-02T04:12:06;0.40;84.30
77613;DHT22;66777;52.282;5.960;2023-03-02T04:14:32;0.40;83.90
77613;DHT22;66777;52.282;5.960;2023-03-02T04:16:58;0.40;83.70
77613;DHT22;66777;52.282;5.960;2023-03-02T04:19:24;0.40;83.70
77613;DHT22;66777;52.282;5.960;2023-03-02T04:21:52;0.40;84.00
77613;DHT22;66777;52.282;5.960;2023-03-02T04:24:20;0.50;84.20
77613;DHT22;66777;52.282;5.960;2023-03-02T04:26:47;0.60;84.10
77613;DHT22;66777;52.282;5.960;2023-03-02T04:29:14;0.60;83.70
77613;DHT22;66777;52.282;5.960;2023-03-02T04:31:40;0.60;83.80
77613;DHT22;66777;52.282;5.960;2023-03-02T04:34:07;0.80;83.80
77613;DHT22;66777;52.282;5.960;2023-03-02T04:36:35;0.80;83.70
77613;DHT22;66777;52.282;5.960;2023-03-02T04:39:02;0.80;83.30
77613;DHT22;66777;52.282;5.960;2023-03-02T04:41:28;0.80;83.20
77613;DHT22;66777;52.282;5.960;2023-03-02T04:43:54;0.80;83.20
77613;DHT22;66777;52.282;5.960;2023-03-02T04:46:23;0.80;83.20
77613;DHT22;66777;52.282;5.960;2023-03-02T04:48:50;0.80;83.10
77613;DHT22;66777;52.282;5.960;2023-03-02T04:51:26;0.80;83.10
77613;DHT22;66777;52.282;5.960;2023-03-02T04:53:57;0.80;82.80
77613;DHT22;66777;52.282;5.960;2023-03-02T04:56:24;0.80;82.90
77613;DHT22;66777;52.282;5.960;2023-03-02T04:58:50;0.80;82.70
77613;DHT22;66777;52.282;5.960;2023-03-02T05:01:16;0.90;82.50
77613;DHT22;66777;52.282;5.960;2023-03-02T05:03:43;0.90;82.50
77613;DHT22;66777;52.282;5.960;2023-03-02T05:06:10;1.00;82.30
77613;DHT22;66777;52.282;5.960;2023-03-02T05:08:36;0.90;82.30
77613;DHT22;66777;52.282;5.960;2023-03-02T05:11:02;1.00;82.30
77613;DHT22;66777;52.282;5.960;2023-03-02T05:13:29;1.00;82.10
77613;DHT22;66777;52.282;5.960;2023-03-02T05:15:55;1.00;81.70
77613;DHT22;66777;52.282;5.960;2023-03-02T05:18:24;1.00;81.80
77613;DHT22;66777;52.282;5.960;2023-03-02T05:20:51;1.00;81.60
77613;DHT22;66777;52.282;5.960;2023-03-02T05:23:19;1.00;81.70
77613;DHT22;66777;52.282;5.960;2023-03-02T05:25:50;1.00;81.60
77613;DHT22;66777;52.282;5.960;2023-03-02T05:28:17;1.10;81.60
77613;DHT22;66777;52.282;5.960;2023-03-02T05:30:44;1.00;81.70
77613;DHT22;66777;52.282;5.960;2023-03-02T05:33:09;1.10;81.50
77613;DHT22;66777;52.282;5.960;2023-03-02T05:35:35;1.10;81.10
77613;DHT22;66777;52.282;5.960;2023-03-02T05:38:01;1.10;81.10
77613;DHT22;66777;52.282;5.960;2023-03-02T05:40:26;1.10;81.10
77613;DHT22;66777;52.282;5.960;2023-03-02T05:42:52;1.00;81.10
77613;DHT22;66777;52.282;5.960;2023-03-02T05:45:24;1.00;81.10
77613;DHT22;66777;52.282;5.960;2023-03-02T05:47:51;0.80;81.30
77613;DHT22;66777;52.282;5.960;2023-03-02T05:50:17;0.80;81.70
77613;DHT22;66777;52.282;5.960;2023-03-02T05:52:44;0.80;81.70
77613;DHT22;66777;52.282;5.960;2023-03-02T05:55:11;0.70;81.70
77613;DHT22;66777;52.282;5.960;2023-03-02T05:57:38;0.70;81.80
77613;DHT22;66777;52.282;5.960;2023-03-02T06:00:04;0.60;81.80
77613;DHT22;66777;52.282;5.960;2023-03-02T06:02:31;0.60;82.00
77613;DHT22;66777;52.282;5.960;2023-03-02T06:04:56;0.60;81.90
77613;DHT22;66777;52.282;5.960;2023-03-02T06:07:22;0.60;82.00
77613;DHT22;66777;52.282;5.960;2023-03-02T06:09:48;0.60;82.10
77613;DHT22;66777;52.282;5.960;2023-03-02T06:12:15;0.60;82.10
77613;DHT22;66777;52.282;5.960;2023-03-02T06:14:43;0.50;82.30
77613;DHT22;66777;52.282;5.960;2023-03-02T06:17:09;0.50;82.30
77613;DHT22;66777;52.282;5.960;2023-03-02T06:19:35;0.50;82.50
77613;DHT22;66777;52.282;5.960;2023-03-02T06:22:01;0.50;82.30
77613;DHT22;66777;52.282;5.960;2023-03-02T06:24:28;0.40;82.10
77613;DHT22;66777;52.282;5.960;2023-03-02T06:26:54;0.30;82.50
77613;DHT22;66777;52.282;5.960;2023-03-02T06:29:21;0.30;82.60
77613;DHT22;66777;52.282;5.960;2023-03-02T06:31:47;0.30;82.80
77613;DHT22;66777;52.282;5.960;2023-03-02T06:34:13;0.40;82.60
77613;DHT22;66777;52.282;5.960;2023-03-02T06:36:40;0.40;82.70
77613;DHT22;66777;52.282;5.960;2023-03-02T06:39:07;0.50;82.60
77613;DHT22;66777;52.282;5.960;2023-03-02T06:41:49;0.60;82.20
77613;DHT22;66777;52.282;5.960;2023-03-02T06:44:16;0.60;82.10
77613;DHT22;66777;52.282;5.960;2023-03-02T06:46:43;0.70;82.00
77613;DHT22;66777;52.282;5.960;2023-03-02T06:49:09;0.80;81.90
77613;DHT22;66777;52.282;5.960;2023-03-02T06:51:36;0.70;81.70
77613;DHT22;66777;52.282;5.960;2023-03-02T06:54:03;0.60;81.70
77613;DHT22;66777;52.282;5.960;2023-03-02T06:56:31;0.60;82.10
77613;DHT22;66777;52.282;5.960;2023-03-02T06:58:57;0.60;82.20
77613;DHT22;66777;52.282;5.960;2023-03-02T07:01:23;0.70;82.00
77613;DHT22;66777;52.282;5.960;2023-03-02T07:03:48;0.70;81.90
77613;DHT22;66777;52.282;5.960;2023-03-02T07:06:14;0.80;82.00
77613;DHT22;66777;52.282;5.960;2023-03-02T07:08:40;0.90;81.60
77613;DHT22;66777;52.282;5.960;2023-03-02T07:11:08;1.00;81.40
77613;DHT22;66777;52.282;5.960;2023-03-02T07:13:38;1.10;81.30
77613;DHT22;66777;52.282;5.960;2023-03-02T07:16:12;1.20;81.10
77613;DHT22;66777;52.282;5.960;2023-03-02T07:18:39;1.30;80.70
77613;DHT22;66777;52.282;5.960;2023-03-02T07:21:06;1.40;80.50
77613;DHT22;66777;52.282;5.960;2023-03-02T07:23:32;1.40;80.50
77613;DHT22;66777;52.282;5.960;2023-03-02T07:25:58;1.50;80.30
77613;DHT22;66777;52.282;5.960;2023-03-02T07:28:24;1.60;80.20
77613;DHT22;66777;52.282;5.960;2023-03-02T07:30:51;1.70;80.10
77613;DHT22;66777;52.282;5.960;2023-03-02T07:33:18;1.70;79.50
77613;DHT22;66777;52.282;5.960;2023-03-02T07:35:45;1.70;79.50
77613;DHT22;66777;52.282;5.960;2023-03-02T07:38:10;1.70;79.50
77613;DHT22;66777;52.282;5.960;2023-03-02T07:40:43;1.90;79.40
77613;DHT22;66777;52.282;5.960;2023-03-02T07:43:09;1.90;79.20
77613;DHT22;66777;52.282;5.960;2023-03-02T07:45:36;2.00;79.00
77613;DHT22;66777;52.282;5.960;2023-03-02T07:48:04;2.00;78.90
77613;DHT22;66777;52.282;5.960;2023-03-02T07:50:31;1.90;79.00
77613;DHT22;66777;52.282;5.960;2023-03-02T07:52:57;2.10;79.20
77613;DHT22;66777;52.282;5.960;2023-03-02T07:55:22;2.20;78.90
77613;DHT22;66777;52.282;5.960;2023-03-02T07:57:48;2.50;78.50
77613;DHT22;66777;52.282;5.960;2023-03-02T08:00:16;2.50;77.90
77613;DHT22;66777;52.282;5.960;2023-03-02T08:02:42;2.50;78.00
77613;DHT22;66777;52.282;5.960;2023-03-02T08:05:10;2.50;77.80
77613;DHT22;66777;52.282;5.960;2023-03-02T08:07:36;2.70;77.60
77613;DHT22;66777;52.282;5.960;2023-03-02T08:10:05;2.80;77.40
77613;DHT22;66777;52.282;5.960;2023-03-02T08:12:31;2.70;77.50
77613;DHT22;66777;52.282;5.960;2023-03-02T08:14:57;2.70;77.50
77613;DHT22;66777;52.282;5.960;2023-03-02T08:17:23;2.70;77.70
77613;DHT22;66777;52.282;5.960;2023-03-02T08:19:49;2.90;77.70
77613;DHT22;66777;52.282;5.960;2023-03-02T08:22:16;3.00;77.50
77613;DHT22;66777;52.282;5.960;2023-03-02T08:24:42;3.10;77.30
77613;DHT22;66777;52.282;5.960;2023-03-02T08:27:12;3.20;76.80
77613;DHT22;66777;52.282;5.960;2023-03-02T08:29:38;3.30;76.70
77613;DHT22;66777;52.282;5.960;2023-03-02T08:32:04;3.30;76.70
77613;DHT22;66777;52.282;5.960;2023-03-02T08:34:30;3.30;76.70
77613;DHT22;66777;52.282;5.960;2023-03-02T08:36:56;3.30;76.70
77613;DHT22;66777;52.282;5.960;2023-03-02T08:39:21;3.50;76.60
77613;DHT22;66777;52.282;5.960;2023-03-02T08:41:52;3.60;76.30
77613;DHT22;66777;52.282;5.960;2023-03-02T08:44:18;3.60;75.90
77613;DHT22;66777;52.282;5.960;2023-03-02T08:46:47;3.60;76.10
77613;DHT22;66777;52.282;5.960;2023-03-02T08:49:15;3.60;76.20
77613;DHT22;66777;52.282;5.960;2023-03-02T08:51:41;3.60;76.20
77613;DHT22;66777;52.282;5.960;2023-03-02T08:54:08;3.70;76.10
77613;DHT22;66777;52.282;5.960;2023-03-02T08:56:36;3.90;76.20
77613;DHT22;66777;52.282;5.960;2023-03-02T08:59:05;4.20;75.40
77613;DHT22;66777;52.282;5.960;2023-03-02T09:01:34;4.40;75.00
77613;DHT22;66777;52.282;5.960;2023-03-02T09:04:00;4.50;74.70
77613;DHT22;66777;52.282;5.960;2023-03-02T09:06:29;4.70;74.00
77613;DHT22;66777;52.282;5.960;2023-03-02T09:08:56;4.70;73.40
77613;DHT22;66777;52.282;5.960;2023-03-02T09:11:22;4.80;73.70
77613;DHT22;66777;52.282;5.960;2023-03-02T09:13:49;4.80;73.50
77613;DHT22;66777;52.282;5.960;2023-03-02T09:16:17;4.80;73.30
77613;DHT22;66777;52.282;5.960;2023-03-02T09:18:44;4.70;73.70
77613;DHT22;66777;52.282;5.960;2023-03-02T09:21:11;4.70;73.30
77613;DHT22;66777;52.282;5.960;2023-03-02T09:23:38;4.70;73.00
77613;DHT22;66777;52.282;5.960;2023-03-02T09:26:04;4.60;73.20
77613;DHT22;66777;52.282;5.960;2023-03-02T09:28:31;4.50;73.30
77613;DHT22;66777;52.282;5.960;2023-03-02T09:30:59;4.60;73.60
77613;DHT22;66777;52.282;5.960;2023-03-02T09:33:25;4.50;73.80
77613;DHT22;66777;52.282;5.960;2023-03-02T09:35:51;4.60;73.80
77613;DHT22;66777;52.282;5.960;2023-03-02T09:38:18;4.70;73.20
77613;DHT22;66777;52.282;5.960;2023-03-02T09:46:33;5.60;71.60
77613;DHT22;66777;52.282;5.960;2023-03-02T09:52:25;6.20;70.40
77613;DHT22;66777;52.282;5.960;2023-03-02T09:54:53;6.50;69.30
77613;DHT22;66777;52.282;5.960;2023-03-02T09:57:34;6.90;68.50
77613;DHT22;66777;52.282;5.960;2023-03-02T10:05:20;6.20;69.10
77613;DHT22;66777;52.282;5.960;2023-03-02T10:07:46;6.20;69.60
77613;DHT22;66777;52.282;5.960;2023-03-02T10:13:00;6.30;68.30
77613;DHT22;66777;52.282;5.960;2023-03-02T10:21:45;6.10;69.40
77613;DHT22;66777;52.282;5.960;2023-03-02T10:24:00;6.10;69.30
77613;DHT22;66777;52.282;5.960;2023-03-02T10:26:44;6.10;69.50
77613;DHT22;66777;52.282;5.960;2023-03-02T10:29:42;6.10;69.40
77613;DHT22;66777;52.282;5.960;2023-03-02T10:33:07;6.10;69.20
77613;DHT22;66777;52.282;5.960;2023-03-02T10:35:18;6.20;69.40
77613;DHT22;66777;52.282;5.960;2023-03-02T10:37:46;6.20;68.80
77613;DHT22;66777;52.282;5.960;2023-03-02T10:41:12;6.60;67.70
77613;DHT22;66777;52.282;5.960;2023-03-02T10:43:45;6.50;67.70
77613;DHT22;66777;52.282;5.960;2023-03-02T10:46:12;6.50;67.50
77613;DHT22;66777;52.282;5.960;2023-03-02T10:48:56;6.60;68.00
77613;DHT22;66777;52.282;5.960;2023-03-02T10:51:31;6.70;68.00
77613;DHT22;66777;52.282;5.960;2023-03-02T10:54:10;7.00;67.20
77613;DHT22;66777;52.282;5.960;2023-03-02T10:56:37;7.20;67.00
77613;DHT22;66777;52.282;5.960;2023-03-02T11:02:17;7.90;65.70
77613;DHT22;66777;52.282;5.960;2023-03-02T11:04:43;8.20;65.30
77613;DHT22;66777;52.282;5.960;2023-03-02T11:07:20;9.20;63.00
77613;DHT22;66777;52.282;5.960;2023-03-02T11:10:03;10.00;61.90
77613;DHT22;66777;52.282;5.960;2023-03-02T11:12:30;10.80;59.80
77613;DHT22;66777;52.282;5.960;2023-03-02T11:15:12;11.30;58.80
77613;DHT22;66777;52.282;5.960;2023-03-02T11:17:41;11.10;58.60
77613;DHT22;66777;52.282;5.960;2023-03-02T11:20:16;10.80;59.40
77613;DHT22;66777;52.282;5.960;2023-03-02T11:22:52;10.60;60.00
77613;DHT22;66777;52.282;5.960;2023-03-02T11:25:29;11.50;59.80
77613;DHT22;66777;52.282;5.960;2023-03-02T11:28:04;13.90;54.80
77613;DHT22;66777;52.282;5.960;2023-03-02T11:30:40;13.90;54.30
77613;DHT22;66777;52.282;5.960;2023-03-02T11:33:34;14.10;53.80
77613;DHT22;66777;52.282;5.960;2023-03-02T11:36:16;14.70;52.10
77613;DHT22;66777;52.282;5.960;2023-03-02T11:38:49;16.50;49.80
77613;DHT22;66777;52.282;5.960;2023-03-02T11:41:29;18.40;47.40
77613;DHT22;66777;52.282;5.960;2023-03-02T11:43:59;20.90;45.00
77613;DHT22;66777;52.282;5.960;2023-03-02T11:46:28;23.70;42.20
77613;DHT22;66777;52.282;5.960;2023-03-02T11:49:10;26.50;39.40
77613;DHT22;66777;52.282;5.960;2023-03-02T11:51:46;28.40;36.20
77613;DHT22;66777;52.282;5.960;2023-03-02T11:54:45;29.20;34.70
77613;DHT22;66777;52.282;5.960;2023-03-02T11:57:20;29.50;35.00
77613;DHT22;66777;52.282;5.960;2023-03-02T11:59:48;30.00;34.90
77613;DHT22;66777;52.282;5.960;2023-03-02T12:02:15;29.70;35.70
77613;DHT22;66777;52.282;5.960;2023-03-02T12:04:42;29.40;35.40
77613;DHT22;66777;52.282;5.960;2023-03-02T12:07:24;29.10;35.00
77613;DHT22;66777;52.282;5.960;2023-03-02T12:10:05;29.80;32.90
77613;DHT22;66777;52.282;5.960;2023-03-02T12:15:02;30.50;33.40
77613;DHT22;66777;52.282;5.960;2023-03-02T12:17:32;31.10;32.60
77613;DHT22;66777;52.282;5.960;2023-03-02T12:22:33;32.50;31.40
77613;DHT22;66777;52.282;5.960;2023-03-02T12:25:04;32.60;30.70
77613;DHT22;66777;52.282;5.960;2023-03-02T12:27:36;33.80;31.10
77613;DHT22;66777;52.282;5.960;2023-03-02T12:30:16;34.70;30.60
77613;DHT22;66777;52.282;5.960;2023-03-02T12:35:31;35.00;29.70
77613;DHT22;66777;52.282;5.960;2023-03-02T12:38:21;35.30;29.80
77613;DHT22;66777;52.282;5.960;2023-03-02T12:43:28;34.80;27.60
77613;DHT22;66777;52.282;5.960;2023-03-02T12:46:31;35.40;28.30
77613;DHT22;66777;52.282;5.960;2023-03-02T12:49:14;35.40;28.00
77613;DHT22;66777;52.282;5.960;2023-03-02T12:51:54;35.30;28.50
77613;DHT22;66777;52.282;5.960;2023-03-02T12:54:31;35.80;28.50
77613;DHT22;66777;52.282;5.960;2023-03-02T12:57:18;35.40;28.90
77613;DHT22;66777;52.282;5.960;2023-03-02T13:00:14;35.70;27.40
77613;DHT22;66777;52.282;5.960;2023-03-02T13:02:46;35.10;28.40
77613;DHT22;66777;52.282;5.960;2023-03-02T13:05:35;33.70;28.60
77613;DHT22;66777;52.282;5.960;2023-03-02T13:08:07;33.10;29.00
77613;DHT22;66777;52.282;5.960;2023-03-02T13:15:59;34.10;28.80
77613;DHT22;66777;52.282;5.960;2023-03-02T13:18:31;34.70;28.60
77613;DHT22;66777;52.282;5.960;2023-03-02T13:20:59;35.20;27.70
77613;DHT22;66777;52.282;5.960;2023-03-02T13:23:26;34.90;28.20
77613;DHT22;66777;52.282;5.960;2023-03-02T13:25:58;35.80;28.00
77613;DHT22;66777;52.282;5.960;2023-03-02T13:28:27;35.90;27.60
77613;DHT22;66777;52.282;5.960;2023-03-02T13:31:04;36.00;27.80
77613;DHT22;66777;52.282;5.960;2023-03-02T13:33:31;35.60;27.60
77613;DHT22;66777;52.282;5.960;2023-03-02T13:35:59;34.60;27.70
77613;DHT22;66777;52.282;5.960;2023-03-02T13:38:35;34.20;28.10
77613;DHT22;66777;52.282;5.960;2023-03-02T13:41:04;35.20;27.70
77613;DHT22;66777;52.282;5.960;2023-03-02T13:43:34;33.70;28.10
77613;DHT22;66777;52.282;5.960;2023-03-02T13:46:03;32.40;29.00
77613;DHT22;66777;52.282;5.960;2023-03-02T13:48:30;30.70;30.40
77613;DHT22;66777;52.282;5.960;2023-03-02T13:51:14;29.30;31.80
77613;DHT22;66777;52.282;5.960;2023-03-02T13:53:50;27.00;33.20
77613;DHT22;66777;52.282;5.960;2023-03-02T13:56:18;25.00;33.70
77613;DHT22;66777;52.282;5.960;2023-03-02T13:58:45;23.30;35.30
77613;DHT22;66777;52.282;5.960;2023-03-02T14:01:12;22.60;35.90
77613;DHT22;66777;52.282;5.960;2023-03-02T14:03:38;22.50;36.50
77613;DHT22;66777;52.282;5.960;2023-03-02T14:06:05;22.50;36.30
77613;DHT22;66777;52.282;5.960;2023-03-02T14:08:31;21.30;37.20
77613;DHT22;66777;52.282;5.960;2023-03-02T14:10:58;19.70;38.20
77613;DHT22;66777;52.282;5.960;2023-03-02T14:16:04;16.50;42.20
77613;DHT22;66777;52.282;5.960;2023-03-02T14:18:39;15.70;43.10
77613;DHT22;66777;52.282;5.960;2023-03-02T14:21:11;14.90;45.20
77613;DHT22;66777;52.282;5.960;2023-03-02T14:23:37;15.30;44.60
77613;DHT22;66777;52.282;5.960;2023-03-02T14:29:14;15.10;45.80
77613;DHT22;66777;52.282;5.960;2023-03-02T14:31:41;14.30;45.40
77613;DHT22;66777;52.282;5.960;2023-03-02T14:34:15;13.60;46.20
77613;DHT22;66777;52.282;5.960;2023-03-02T14:36:43;13.50;47.50
77613;DHT22;66777;52.282;5.960;2023-03-02T14:39:19;13.30;47.00
77613;DHT22;66777;52.282;5.960;2023-03-02T14:41:45;13.00;48.50
77613;DHT22;66777;52.282;5.960;2023-03-02T14:44:13;12.80;47.40
77613;DHT22;66777;52.282;5.960;2023-03-02T14:46:40;12.50;48.00
77613;DHT22;66777;52.282;5.960;2023-03-02T14:49:06;12.50;47.90
77613;DHT22;66777;52.282;5.960;2023-03-02T14:51:33;12.20;48.60
77613;DHT22;66777;52.282;5.960;2023-03-02T14:54:02;11.90;49.70
77613;DHT22;66777;52.282;5.960;2023-03-02T14:56:29;12.40;49.90
77613;DHT22;66777;52.282;5.960;2023-03-02T14:58:57;13.30;48.70
77613;DHT22;66777;52.282;5.960;2023-03-02T15:01:23;13.30;48.60
77613;DHT22;66777;52.282;5.960;2023-03-02T15:03:49;12.80;49.60
77613;DHT22;66777;52.282;5.960;2023-03-02T15:08:50;12.10;50.70
77613;DHT22;66777;52.282;5.960;2023-03-02T15:11:16;11.90;51.20
77613;DHT22;66777;52.282;5.960;2023-03-02T15:13:42;11.50;51.90
77613;DHT22;66777;52.282;5.960;2023-03-02T15:16:12;11.50;52.10
77613;DHT22;66777;52.282;5.960;2023-03-02T15:18:39;11.80;52.20
77613;DHT22;66777;52.282;5.960;2023-03-02T15:21:05;11.90;51.60
77613;DHT22;66777;52.282;5.960;2023-03-02T15:23:32;11.70;51.80
77613;DHT22;66777;52.282;5.960;2023-03-02T15:26:02;11.50;52.20
77613;DHT22;66777;52.282;5.960;2023-03-02T15:28:28;11.20;52.90
77613;DHT22;66777;52.282;5.960;2023-03-02T15:30:54;11.10;52.80
77613;DHT22;66777;52.282;5.960;2023-03-02T15:33:21;10.80;53.60
77613;DHT22;66777;52.282;5.960;2023-03-02T15:35:52;10.70;53.80
77613;DHT22;66777;52.282;5.960;2023-03-02T15:38:18;10.40;55.00
77613;DHT22;66777;52.282;5.960;2023-03-02T15:40:45;10.20;55.50
77613;DHT22;66777;52.282;5.960;2023-03-02T15:43:11;9.80;55.90
77613;DHT22;66777;52.282;5.960;2023-03-02T15:45:36;9.50;56.60
77613;DHT22;66777;52.282;5.960;2023-03-02T15:48:03;9.40;57.30
77613;DHT22;66777;52.282;5.960;2023-03-02T15:50:29;9.20;57.90
77613;DHT22;66777;52.282;5.960;2023-03-02T15:52:55;9.00;58.40
77613;DHT22;66777;52.282;5.960;2023-03-02T15:55:22;8.80;58.70
77613;DHT22;66777;52.282;5.960;2023-03-02T15:57:47;8.70;58.70
77613;DHT22;66777;52.282;5.960;2023-03-02T16:00:14;8.60;59.10
77613;DHT22;66777;52.282;5.960;2023-03-02T16:02:40;8.50;59.50
77613;DHT22;66777;52.282;5.960;2023-03-02T16:05:07;8.30;59.50
77613;DHT22;66777;52.282;5.960;2023-03-02T16:07:33;8.20;60.10
77613;DHT22;66777;52.282;5.960;2023-03-02T16:10:02;8.10;60.40
77613;DHT22;66777;52.282;5.960;2023-03-02T16:12:28;8.00;60.80
77613;DHT22;66777;52.282;5.960;2023-03-02T16:14:54;7.90;61.60
77613;DHT22;66777;52.282;5.960;2023-03-02T16:17:20;7.80;62.30
77613;DHT22;66777;52.282;5.960;2023-03-02T16:19:45;7.80;62.90
77613;DHT22;66777;52.282;5.960;2023-03-02T16:22:11;7.60;63.50
77613;DHT22;66777;52.282;5.960;2023-03-02T16:24:37;7.50;63.50
77613;DHT22;66777;52.282;5.960;2023-03-02T16:27:04;7.50;64.00
77613;DHT22;66777;52.282;5.960;2023-03-02T16:29:29;7.30;63.60
77613;DHT22;66777;52.282;5.960;2023-03-02T16:31:56;7.20;64.50
77613;DHT22;66777;52.282;5.960;2023-03-02T16:34:21;7.00;65.50
77613;DHT22;66777;52.282;5.960;2023-03-02T16:36:48;7.00;65.90
77613;DHT22;66777;52.282;5.960;2023-03-02T16:39:15;6.90;65.90
77613;DHT22;66777;52.282;5.960;2023-03-02T16:41:42;6.80;66.10
77613;DHT22;66777;52.282;5.960;2023-03-02T16:44:10;6.70;66.50
77613;DHT22;66777;52.282;5.960;2023-03-02T16:46:38;6.60;66.70
77613;DHT22;66777;52.282;5.960;2023-03-02T16:49:04;6.40;67.10
77613;DHT22;66777;52.282;5.960;2023-03-02T16:51:31;6.30;67.80
77613;DHT22;66777;52.282;5.960;2023-03-02T16:53:57;6.20;67.90
77613;DHT22;66777;52.282;5.960;2023-03-02T16:56:23;6.10;68.50